Thunder radar more information blitzortung!


Radar de pluja more information rain snow radar


Visita la nostra xarxa de llocs de meteo:

Template documentation
and downloads

And another site



No particular awareness of the weather is required.    There are no Weather-warnings

Pagina Historial Weather Underground text

Diari Resum Octubre 24, 2017 Unitats:  Imperial    Mètric   Tant
« Previous Dia
SegĂźent Dia »
Diari Setmana Mensual Anual Personalitzada
  Maxima: Minima: Media:
Temperatura: TemperatureC °F 9.6 °F 17.4 °F
Punt de rosada: DewpointC °F 5.2 °F 8.4 °F
Humitat: Humidity % 42 % 56 %
Wind Speed: WindSpeedKMH mph 0.0 mph 3.2 mph
RĂ fegues de vent: WindSpeedGustKMH mph - -
Vent:- - SSW
Pression baro: PressurehPa in 1021.9 in -
Precipitacions: 0.0 in    
Historical Graphs
 
 
Dades de taula per Octubre 24, 2017
Temps Temperatura Punt de rosada Pression baro Vent Wind Speed RĂ fegues de vent Humitat Rainfall Rate (Hourly)
TemperatureC °F DewpointC °F PressurehPa in Calm     Humidity % HourlyPrecipMM in
00:04 13.0 °F 5.9 °F 1023.9 in WSW 1.9 mph 1.9 mph 62 % 0.0 in
00:05 10.4 °F 5.8 °F 1023.9 in WSW 1.6 mph 3.2 mph 73 % 0.0 in
00:09 12.9 °F 6.0 °F 1023.9 in Calm     63 % 0.0 in
00:15 10.4 °F 5.9 °F 1023.9 in Calm   3.2 mph 74 % 0.0 in
00:25 10.4 °F 5.9 °F 1023.9 in Calm     74 % 0.0 in
00:35 10.4 °F 5.9 °F 1023.9 in Calm   3.2 mph 74 % 0.0 in
00:45 10.4 °F 5.9 °F 1023.9 in Calm   1.6 mph 74 % 0.0 in
00:55 10.4 °F 5.9 °F 1023.9 in WNW 1.6 mph 1.6 mph 74 % 0.0 in
01:05 9.8 °F 5.4 °F 1022.9 in WSW 3.2 mph 3.2 mph 74 % 0.0 in
01:15 9.8 °F 5.4 °F 1023.9 in SW 1.6 mph 3.2 mph 74 % 0.0 in
01:25 9.9 °F 5.7 °F 1023.9 in SW 1.6 mph 1.6 mph 75 % 0.0 in
01:35 10.1 °F 5.7 °F 1023.9 in WSW 1.6 mph 4.8 mph 74 % 0.0 in
01:55 10.2 °F 5.8 °F 1023.9 in West 1.6 mph 3.2 mph 74 % 0.0 in
02:05 9.6 °F 5.2 °F 1023.9 in WSW 3.2 mph 4.8 mph 74 % 0.0 in
02:15 9.8 °F 5.6 °F 1023.9 in WSW 1.6 mph 3.2 mph 75 % 0.0 in
02:25 10.1 °F 5.9 °F 1023.9 in Calm   3.2 mph 75 % 0.0 in
02:35 10.4 °F 6.2 °F 1023.9 in West 1.6 mph 3.2 mph 75 % 0.0 in
02:45 10.4 °F 6.2 °F 1023.9 in West 1.6 mph 1.6 mph 75 % 0.0 in
02:55 10.1 °F 5.9 °F 1023.9 in Calm   1.6 mph 75 % 0.0 in
03:05 10.1 °F 5.9 °F 1023.9 in Calm     75 % 0.0 in
03:15 10.3 °F 6.1 °F 1023.9 in Calm   3.2 mph 75 % 0.0 in
03:25 10.5 °F 6.3 °F 1023.9 in Calm   3.2 mph 75 % 0.0 in
03:35 10.3 °F 6.1 °F 1023.9 in WNW 1.6 mph 1.6 mph 75 % 0.0 in
03:45 10.5 °F 6.3 °F 1023.9 in Calm   3.2 mph 75 % 0.0 in
03:55 10.9 °F 6.7 °F 1023.9 in West 1.6 mph 3.2 mph 75 % 0.0 in
04:05 11.3 °F 7.0 °F 1024.9 in West 1.6 mph 3.2 mph 75 % 0.0 in
04:15 11.9 °F 7.4 °F 1024.9 in WNW 1.6 mph 3.2 mph 74 % 0.0 in
04:25 12.3 °F 7.8 °F 1024.9 in Calm   1.6 mph 74 % 0.0 in
04:35 12.8 °F 8.1 °F 1024.9 in Calm   4.8 mph 73 % 0.0 in
04:45 13.1 °F 8.2 °F 1026.0 in Calm   3.2 mph 72 % 0.0 in
04:55 13.5 °F 8.3 °F 1026.0 in Calm   3.2 mph 71 % 0.0 in
05:05 14.0 °F 8.4 °F 1026.0 in Calm   3.2 mph 69 % 0.0 in
05:15 14.5 °F 8.9 °F 1026.0 in Calm   3.2 mph 69 % 0.0 in
10:16 14.6 °F 8.8 °F 1026.0 in NNW 5.6 mph 5.6 mph 68 % 0.0 in
10:17 14.6 °F 8.8 °F 1026.0 in NW 3.7 mph 3.7 mph 68 % 0.0 in
10:22 14.8 °F 8.7 °F 1026.0 in ENE 3.7 mph 3.7 mph 67 % 0.0 in
10:27 15.1 °F 9.0 °F 1026.0 in NW 3.7 mph 3.7 mph 67 % 0.0 in
10:32 15.4 °F 9.3 °F 1026.0 in WSW 2.6 mph   67 % 0.0 in
10:37 16.0 °F 9.7 °F 1026.0 in Calm     66 % 0.0 in
10:42 16.0 °F 9.4 °F 1026.0 in NW 3.7 mph 3.7 mph 65 % 0.0 in
10:43 16.0 °F 9.4 °F 1026.0 in NW 3.7 mph   65 % 0.0 in
10:48 16.3 °F 9.7 °F 1026.0 in NNW 1.9 mph 1.9 mph 65 % 0.0 in
10:53 16.5 °F 9.7 °F 1026.0 in NE 3.7 mph 3.7 mph 64 % 0.0 in
10:58 16.6 °F 9.8 °F 1026.0 in WNW 3.7 mph 3.7 mph 64 % 0.0 in
11:03 16.9 °F 9.8 °F 1026.0 in North 1.9 mph 1.9 mph 63 % 0.0 in
11:08 17.0 °F 9.4 °F 1026.0 in ENE 5.6 mph 5.6 mph 61 % 0.0 in
11:18 17.2 °F 9.6 °F 1026.0 in NE 6.1 mph 6.1 mph 61 % 0.0 in
11:23 17.5 °F 9.7 °F 1026.0 in ENE 3.7 mph 3.7 mph 60 % 0.0 in
11:28 17.9 °F 10.0 °F 1024.9 in NNE 3.7 mph 3.7 mph 60 % 0.0 in
11:33 18.1 °F 9.9 °F 1024.9 in East 7.4 mph 7.4 mph 59 % 0.0 in
11:38 17.9 °F 9.5 °F 1024.9 in NE 9.3 mph 9.3 mph 58 % 0.0 in
11:43 18.0 °F 9.6 °F 1024.9 in NNE 9.3 mph 9.3 mph 58 % 0.0 in
11:48 17.9 °F 9.3 °F 1024.9 in NNE 7.4 mph 7.4 mph 57 % 0.0 in
11:53 18.0 °F 9.3 °F 1024.9 in NE 7.4 mph 7.4 mph 57 % 0.0 in
11:58 18.3 °F 9.6 °F 1026.0 in NNE 11.1 mph 11.1 mph 57 % 0.0 in
12:03 18.5 °F 9.6 °F 1026.0 in East 4.2 mph 4.2 mph 56 % 0.0 in
12:08 18.8 °F 9.6 °F 1026.0 in NW 7.4 mph 7.4 mph 55 % 0.0 in
12:13 18.8 °F 9.6 °F 1024.9 in NNE 9.3 mph 9.3 mph 55 % 0.0 in
12:18 19.0 °F 9.5 °F 1024.9 in ENE 8.7 mph 8.7 mph 54 % 0.0 in
12:23 18.7 °F 9.2 °F 1024.9 in ENE 7.4 mph 7.4 mph 54 % 0.0 in
12:28 19.0 °F 9.2 °F 1024.9 in NNW 5.6 mph 5.6 mph 53 % 0.0 in
12:33 19.0 °F 9.2 °F 1024.9 in NNE 9.3 mph 9.3 mph 53 % 0.0 in
12:38 19.5 °F 9.7 °F 1024.9 in NE 6.1 mph 6.1 mph 53 % 0.0 in
12:43 19.7 °F 9.8 °F 1024.9 in NNE 3.7 mph 3.7 mph 53 % 0.0 in
12:48 19.8 °F 9.7 °F 1024.9 in ENE 7.4 mph 7.4 mph 52 % 0.0 in
12:53 19.6 °F 9.2 °F 1024.9 in NE 5.6 mph 5.6 mph 51 % 0.0 in
12:58 19.7 °F 9.3 °F 1023.9 in NNE 6.1 mph 6.1 mph 51 % 0.0 in
13:03 20.1 °F 9.7 °F 1023.9 in NNE 7.4 mph 7.4 mph 51 % 0.0 in
13:08 20.2 °F 9.4 °F 1023.9 in ESE 3.7 mph 3.7 mph 50 % 0.0 in
13:13 20.3 °F 9.6 °F 1023.9 in ENE 3.7 mph 3.7 mph 50 % 0.0 in
13:18 20.8 °F 10.0 °F 1023.9 in Calm     50 % 0.0 in
13:23 21.3 °F 10.4 °F 1023.9 in SE 5.6 mph 5.6 mph 50 % 0.0 in
13:28 21.2 °F 10.1 °F 1023.9 in SE 4.7 mph 4.7 mph 49 % 0.0 in
13:33 21.0 °F 9.6 °F 1023.9 in ESE 5.6 mph 5.6 mph 48 % 0.0 in
13:38 21.1 °F 9.7 °F 1023.9 in East 5.6 mph 5.6 mph 48 % 0.0 in
13:43 21.1 °F 9.7 °F 1023.9 in East 3.9 mph 4.2 mph 48 % 0.0 in
13:48 21.4 °F 9.9 °F 1023.9 in ENE 3.9 mph   48 % 0.0 in
13:53 21.3 °F 9.8 °F 1023.9 in NNE 3.7 mph 3.7 mph 48 % 0.0 in
13:58 21.5 °F 10.0 °F 1023.9 in ENE 4.2 mph 4.2 mph 48 % 0.0 in
14:03 21.6 °F 10.1 °F 1023.9 in ENE 3.7 mph 3.7 mph 48 % 0.0 in
14:08 21.7 °F 10.2 °F 1023.9 in NNE 3.7 mph 3.7 mph 48 % 0.0 in
14:13 21.9 °F 10.4 °F 1023.9 in ENE 4.2 mph 4.2 mph 48 % 0.0 in
14:18 22.1 °F 10.6 °F 1023.9 in WNW 3.7 mph 3.7 mph 48 % 0.0 in
14:23 22.3 °F 10.4 °F 1023.9 in NW 1.9 mph 1.9 mph 47 % 0.0 in
14:28 22.3 °F 10.8 °F 1023.9 in East 5.6 mph 5.6 mph 48 % 0.0 in
14:33 22.3 °F 10.4 °F 1023.9 in ESE 3.9 mph 3.9 mph 47 % 0.0 in
14:38 22.3 °F 10.4 °F 1023.9 in North 2.3 mph 2.3 mph 47 % 0.0 in
14:43 22.5 °F 10.3 °F 1022.9 in ENE 7.4 mph 7.4 mph 46 % 0.0 in
14:48 22.6 °F 10.4 °F 1022.9 in East 5.6 mph 5.6 mph 46 % 0.0 in
14:53 22.7 °F 10.5 °F 1022.9 in ENE 5.6 mph 5.6 mph 46 % 0.0 in
14:58 22.8 °F 10.2 °F 1022.9 in ESE 5.6 mph 5.6 mph 45 % 0.0 in
15:03 23.1 °F 10.5 °F 1022.9 in South 3.7 mph 3.7 mph 45 % 0.0 in
15:08 23.3 °F 10.3 °F 1022.9 in East 3.7 mph 3.7 mph 44 % 0.0 in
15:13 23.1 °F 9.8 °F 1022.9 in SE 5.6 mph 5.6 mph 43 % 0.0 in
15:18 23.3 °F 10.3 °F 1022.9 in SSE 6.1 mph 6.1 mph 44 % 0.0 in
15:23 23.6 °F 10.3 °F 1022.9 in SW 1.9 mph   43 % 0.0 in
15:28 24.1 °F 11.1 °F 1022.9 in SSE 3.7 mph   44 % 0.0 in
15:33 24.5 °F 11.4 °F 1022.9 in West 5.6 mph 5.6 mph 44 % 0.0 in
15:38 24.6 °F 11.6 °F 1022.9 in SW 7.4 mph 7.4 mph 44 % 0.0 in
15:43 24.3 °F 10.6 °F 1021.9 in SSW 3.7 mph 3.7 mph 42 % 0.0 in
15:48 24.5 °F 11.1 °F 1021.9 in WSW 4.7 mph 4.7 mph 43 % 0.0 in
15:53 24.7 °F 11.3 °F 1021.9 in West 5.6 mph 5.6 mph 43 % 0.0 in
15:58 24.7 °F 11.3 °F 1022.9 in SW 9.7 mph 9.7 mph 43 % 0.0 in
16:03 24.4 °F 10.7 °F 1022.9 in SW 5.6 mph 5.6 mph 42 % 0.0 in
16:08 24.6 °F 11.2 °F 1022.9 in WSW 5.8 mph 5.8 mph 43 % 0.0 in
16:13 24.6 °F 11.2 °F 1021.9 in SW 5.6 mph 5.6 mph 43 % 0.0 in
16:18 24.4 °F 11.0 °F 1021.9 in SW 9.3 mph 9.3 mph 43 % 0.0 in
16:21 24.3 °F 11.3 °F 1021.9 in SSW 4.7 mph 4.7 mph 44 % 0.0 in
16:26 24.1 °F 11.1 °F 1021.9 in SW 5.6 mph 5.6 mph 44 % 0.0 in
16:31 23.8 °F 10.8 °F 1021.9 in SSW 9.3 mph 9.3 mph 44 % 0.0 in
16:36 23.9 °F 10.9 °F 1021.9 in WSW 7.4 mph 7.4 mph 44 % 0.0 in
16:41 23.9 °F 10.9 °F 1021.9 in SSW 11.1 mph 11.1 mph 44 % 0.0 in
16:46 24.0 °F 11.0 °F 1021.9 in SSW 7.4 mph 7.4 mph 44 % 0.0 in
16:51 23.8 °F 10.8 °F 1021.9 in WSW 9.3 mph 9.3 mph 44 % 0.0 in
16:56 23.8 °F 10.8 °F 1022.9 in WSW 10.8 mph 10.8 mph 44 % 0.0 in
17:01 23.6 °F 10.3 °F 1022.9 in SW 11.1 mph 11.1 mph 43 % 0.0 in
17:06 23.6 °F 10.6 °F 1022.9 in SW 9.3 mph 9.3 mph 44 % 0.0 in
17:11 23.5 °F 10.2 °F 1021.9 in WSW 9.3 mph 9.3 mph 43 % 0.0 in
17:16 23.7 °F 10.7 °F 1021.9 in SW 7.4 mph 7.4 mph 44 % 0.0 in
17:21 23.7 °F 10.7 °F 1021.9 in SW 9.3 mph 9.3 mph 44 % 0.0 in
17:26 23.5 °F 10.2 °F 1022.9 in SW 7.4 mph 7.4 mph 43 % 0.0 in
17:31 23.5 °F 10.2 °F 1022.9 in SSW 6.4 mph 6.4 mph 43 % 0.0 in
17:36 23.3 °F 10.0 °F 1022.9 in WSW 9.3 mph 9.3 mph 43 % 0.0 in
17:41 23.1 °F 9.8 °F 1021.9 in SW 5.6 mph 5.6 mph 43 % 0.0 in
17:44 23.1 °F 9.8 °F 1021.9 in South 6.9 mph 6.9 mph 43 % 0.0 in
17:49 23.0 °F 9.7 °F 1021.9 in SSW 5.6 mph 5.6 mph 43 % 0.0 in
17:54 22.9 °F 10.0 °F 1022.9 in SW 3.7 mph 3.9 mph 44 % 0.0 in
17:59 22.9 °F 10.0 °F 1022.9 in WSW 7.9 mph 7.9 mph 44 % 0.0 in
18:04 22.6 °F 9.7 °F 1022.9 in SW 7.6 mph 7.6 mph 44 % 0.0 in
18:09 22.5 °F 9.6 °F 1021.9 in WSW 6.4 mph 6.4 mph 44 % 0.0 in
18:14 22.4 °F 9.6 °F 1021.9 in SW 3.7 mph 3.7 mph 44 % 0.0 in
18:19 22.3 °F 9.8 °F 1021.9 in SSW 4.2 mph 4.2 mph 45 % 0.0 in
18:24 22.0 °F 9.5 °F 1022.9 in SW 5.6 mph 5.6 mph 45 % 0.0 in
18:29 21.7 °F 9.2 °F 1022.9 in SW 6.1 mph 6.1 mph 45 % 0.0 in
18:34 21.5 °F 9.1 °F 1022.9 in WSW 4.2 mph 4.2 mph 45 % 0.0 in
18:39 21.1 °F 8.7 °F 1021.9 in SW 7.4 mph 7.4 mph 45 % 0.0 in
18:44 20.9 °F 8.5 °F 1021.9 in SSW 5.6 mph 5.6 mph 45 % 0.0 in
18:49 20.7 °F 8.7 °F 1021.9 in WSW 3.7 mph 3.7 mph 46 % 0.0 in
18:54 20.5 °F 8.5 °F 1021.9 in WSW 3.2 mph   46 % 0.0 in
18:59 20.3 °F 8.3 °F 1021.9 in SW 3.7 mph 3.7 mph 46 % 0.0 in
19:04 20.1 °F 8.1 °F 1021.9 in WSW 1.9 mph 1.9 mph 46 % 0.0 in
19:09 19.9 °F 7.9 °F 1022.9 in WSW 3.9 mph   46 % 0.0 in
19:14 19.8 °F 7.8 °F 1022.9 in SW 3.9 mph 3.9 mph 46 % 0.0 in
19:15 14.3 °F 7.6 °F 1023.9 in Calm     64 % 0.0 in
19:19 19.7 °F 7.7 °F 1022.9 in Calm     46 % 0.0 in
19:24 19.5 °F 7.9 °F 1022.9 in Calm     47 % 0.0 in
19:25 14.3 °F 7.6 °F 1023.9 in Calm   1.6 mph 64 % 0.0 in
19:29 19.3 °F 7.7 °F 1022.9 in Calm     47 % 0.0 in
19:34 19.1 °F 7.5 °F 1022.9 in Calm     47 % 0.0 in
19:35 14.5 °F 7.8 °F 1023.9 in WNW 1.6 mph 3.2 mph 64 % 0.0 in
19:39 19.0 °F 7.4 °F 1022.9 in Calm     47 % 0.0 in
19:44 18.9 °F 7.7 °F 1022.9 in Calm     48 % 0.0 in
19:45 14.3 °F 7.6 °F 1024.9 in WNW 1.6 mph 3.2 mph 64 % 0.0 in
19:49 18.7 °F 7.8 °F 1022.9 in Calm     49 % 0.0 in
19:54 18.6 °F 7.7 °F 1022.9 in Calm     49 % 0.0 in
19:55 14.1 °F 7.4 °F 1024.9 in West 1.6 mph 3.2 mph 64 % 0.0 in
19:59 18.5 °F 7.6 °F 1022.9 in Calm     49 % 0.0 in
20:04 18.4 °F 7.5 °F 1022.9 in Calm     49 % 0.0 in
20:05 14.0 °F 7.3 °F 1023.9 in WSW 1.6 mph 3.2 mph 64 % 0.0 in
20:09 18.3 °F 7.4 °F 1023.9 in SW 1.9 mph   49 % 0.0 in
20:14 18.1 °F 7.5 °F 1023.9 in WNW 1.9 mph 1.9 mph 50 % 0.0 in
20:15 14.0 °F 7.5 °F 1024.9 in Calm   3.2 mph 65 % 0.0 in
20:19 17.9 °F 7.3 °F 1023.9 in Calm     50 % 0.0 in
20:25 13.7 °F 7.2 °F 1024.9 in SW 1.6 mph 1.6 mph 65 % 0.0 in
20:29 17.9 °F 7.3 °F 1022.9 in Calm     50 % 0.0 in
20:34 17.8 °F 7.2 °F 1022.9 in Calm     50 % 0.0 in
20:35 13.4 °F 7.2 °F 1023.9 in SW 1.6 mph 3.2 mph 66 % 0.0 in
20:39 17.8 °F 7.2 °F 1023.9 in Calm     50 % 0.0 in
20:44 17.7 °F 7.2 °F 1023.9 in WNW 2.3 mph   50 % 0.0 in
20:45 13.2 °F 7.2 °F 1024.9 in Calm   1.6 mph 67 % 0.0 in
20:49 17.5 °F 7.2 °F 1023.9 in Calm     51 % 0.0 in
20:54 17.5 °F 7.2 °F 1023.9 in WNW 1.9 mph   51 % 0.0 in
20:55 13.0 °F 7.0 °F 1024.9 in Calm     67 % 0.0 in
20:59 17.4 °F 7.2 °F 1023.9 in WNW 3.2 mph 3.2 mph 51 % 0.0 in
21:04 17.2 °F 6.9 °F 1023.9 in Calm     51 % 0.0 in
21:05 12.9 °F 7.1 °F 1023.9 in SW 1.6 mph 3.2 mph 68 % 0.0 in
21:09 17.1 °F 7.2 °F 1023.9 in Calm     52 % 0.0 in
21:14 17.0 °F 7.1 °F 1023.9 in West 3.7 mph 3.7 mph 52 % 0.0 in
21:15 13.0 °F 7.2 °F 1023.9 in SW 1.6 mph 3.2 mph 68 % 0.0 in
21:19 16.9 °F 7.3 °F 1023.9 in Calm     53 % 0.0 in
21:24 16.7 °F 7.1 °F 1023.9 in Calm     53 % 0.0 in
21:25 13.0 °F 7.4 °F 1023.9 in Calm   3.2 mph 69 % 0.0 in
21:29 16.6 °F 7.2 °F 1023.9 in Calm     54 % 0.0 in
21:34 16.5 °F 7.2 °F 1023.9 in Calm     54 % 0.0 in
21:35 13.0 °F 7.2 °F 1023.9 in Calm   3.2 mph 68 % 0.0 in
21:39 16.4 °F 7.1 °F 1023.9 in Calm     54 % 0.0 in
21:44 16.4 °F 7.1 °F 1023.9 in Calm     54 % 0.0 in
21:45 13.2 °F 7.4 °F 1023.9 in Calm   1.6 mph 68 % 0.0 in
21:49 16.3 °F 6.9 °F 1023.9 in Calm     54 % 0.0 in
21:54 16.2 °F 7.2 °F 1023.9 in Calm     55 % 0.0 in
21:55 13.1 °F 7.6 °F 1023.9 in Calm     69 % 0.0 in
21:59 16.2 °F 7.2 °F 1023.9 in Calm     55 % 0.0 in
22:04 16.1 °F 7.3 °F 1023.9 in Calm     56 % 0.0 in
22:05 12.7 °F 6.9 °F 1023.9 in WSW 3.2 mph 3.2 mph 68 % 0.0 in
22:09 16.0 °F 7.2 °F 1023.9 in Calm     56 % 0.0 in
22:14 15.9 °F 7.4 °F 1023.9 in Calm     57 % 0.0 in
22:15 12.5 °F 6.9 °F 1023.9 in SW 1.6 mph 3.2 mph 69 % 0.0 in
22:19 15.8 °F 7.3 °F 1023.9 in Calm     57 % 0.0 in
22:24 15.7 °F 7.4 °F 1023.9 in Calm     58 % 0.0 in
22:25 12.5 °F 6.9 °F 1023.9 in SW 3.2 mph 3.2 mph 69 % 0.0 in
22:29 15.7 °F 7.4 °F 1023.9 in Calm     58 % 0.0 in
22:34 15.7 °F 7.4 °F 1023.9 in West 1.9 mph 1.9 mph 58 % 0.0 in
22:35 12.3 °F 6.8 °F 1023.9 in SW 1.6 mph 4.8 mph 69 % 0.0 in
22:39 15.8 °F 7.6 °F 1023.9 in West 3.7 mph 3.7 mph 58 % 0.0 in
22:44 15.8 °F 7.6 °F 1023.9 in Calm     58 % 0.0 in
22:45 12.2 °F 6.9 °F 1023.9 in Calm     70 % 0.0 in
22:49 15.9 °F 7.7 °F 1023.9 in West 1.9 mph   58 % 0.0 in
22:54 15.9 °F 7.9 °F 1023.9 in SSW 1.9 mph   59 % 0.0 in
22:55 12.1 °F 7.0 °F 1023.9 in SW 1.6 mph 3.2 mph 71 % 0.0 in
22:59 15.6 °F 7.6 °F 1023.9 in WSW 3.7 mph 3.7 mph 59 % 0.0 in
23:04 15.5 °F 7.5 °F 1023.9 in Calm     59 % 0.0 in
23:05 12.0 °F 6.9 °F 1023.9 in SW 1.6 mph 3.2 mph 71 % 0.0 in
23:09 15.4 °F 7.7 °F 1023.9 in Calm     60 % 0.0 in
23:14 15.3 °F 7.6 °F 1023.9 in WSW 1.9 mph 1.9 mph 60 % 0.0 in
23:15 12.0 °F 6.9 °F 1023.9 in Calm   3.2 mph 71 % 0.0 in
23:19 15.1 °F 7.6 °F 1023.9 in Calm     61 % 0.0 in
23:24 15.1 °F 7.6 °F 1023.9 in SW 3.7 mph 3.7 mph 61 % 0.0 in
23:25 12.0 °F 7.1 °F 1023.9 in Calm     72 % 0.0 in
23:29 15.1 °F 7.6 °F 1023.9 in Calm     61 % 0.0 in
23:34 15.0 °F 7.6 °F 1023.9 in Calm     61 % 0.0 in
23:35 11.9 °F 7.2 °F 1023.9 in Calm     73 % 0.0 in
23:39 15.0 °F 7.8 °F 1023.9 in NNE 2.6 mph 2.6 mph 62 % 0.0 in
23:44 14.9 °F 7.7 °F 1023.9 in NNE 3.7 mph   62 % 0.0 in
23:45 11.9 °F 7.2 °F 1023.9 in Calm     73 % 0.0 in
23:49 14.8 °F 7.6 °F 1023.9 in WNW 3.2 mph   62 % 0.0 in
23:54 14.7 °F 7.5 °F 1023.9 in WNW 1.9 mph 1.9 mph 62 % 0.0 in
23:55 11.9 °F 7.0 °F 1023.9 in SW 1.6 mph 3.2 mph 72 % 0.0 in
23:59 14.6 °F 7.6 °F 1023.9 in WNW 2.6 mph 2.6 mph 63 % 0.0 in
Meteo Sesrovires
Elogis d' Weather Underground - 1.5 mb

Guio original per  Jim McMurry - jmcmurry@mwt.net Adaptat per a la plantilla per  Wim van der Kuil - Leuven-Template.eu

Trobareu la nostra informacio del temps tambe a:

Weather Underground

AWEKAS